createdAt,value
2022-09-07T00:00:13.703Z,17.39
2022-09-07T00:02:47.913Z,17.37
2022-09-07T00:05:15.551Z,17.34
2022-09-07T00:07:48.715Z,17.32
2022-09-07T00:10:18.668Z,17.26
2022-09-07T00:12:48.770Z,17.23
2022-09-07T00:15:19.857Z,17.27
2022-09-07T00:17:47.564Z,17.21
2022-09-07T00:20:16.890Z,17.23
2022-09-07T00:22:47.806Z,17.22
2022-09-07T00:25:15.315Z,17.21
2022-09-07T00:27:43.396Z,17.14
2022-09-07T00:30:14.544Z,17.10
2022-09-07T00:32:48.039Z,17.08
2022-09-07T00:35:15.758Z,17.17
2022-09-07T00:37:43.780Z,17.18
2022-09-07T00:40:11.445Z,17.19
2022-09-07T00:42:45.721Z,17.08
2022-09-07T00:45:18.615Z,17.05
2022-09-07T00:47:50.002Z,17.06
2022-09-07T00:50:38.082Z,17.14
2022-09-07T00:53:10.577Z,17.09
2022-09-07T00:55:42.888Z,17.09
2022-09-07T00:58:11.033Z,17.12
2022-09-07T01:00:41.056Z,17.08
2022-09-07T01:03:12.178Z,17.05
2022-09-07T01:05:42.813Z,17.02
2022-09-07T01:08:13.338Z,17.09
2022-09-07T01:10:44.106Z,16.99
2022-09-07T01:13:11.615Z,17.11
2022-09-07T01:15:43.720Z,17.10
2022-09-07T01:18:35.441Z,17.32
2022-09-07T01:22:01.326Z,17.04
2022-09-07T01:24:52.695Z,17.06
2022-09-07T01:27:49.391Z,17.02
2022-09-07T01:30:19.628Z,16.87
2022-09-07T01:32:59.223Z,16.92
2022-09-07T01:35:39.442Z,16.88
2022-09-07T01:38:47.410Z,16.88
2022-09-07T01:41:18.737Z,16.90
2022-09-07T01:44:02.455Z,16.77
2022-09-07T01:46:39.099Z,16.75
2022-09-07T01:49:35.091Z,16.76
2022-09-07T01:52:16.774Z,16.72
2022-09-07T01:55:06.956Z,16.73
2022-09-07T01:57:44.325Z,16.74
2022-09-07T02:00:19.980Z,16.79
2022-09-07T02:03:01.569Z,16.85
2022-09-07T02:05:35.933Z,16.87
2022-09-07T02:08:13.562Z,16.73
2022-09-07T02:10:59.532Z,16.71
2022-09-07T02:13:48.587Z,16.79
2022-09-07T02:16:29.553Z,16.79
2022-09-07T02:19:09.207Z,16.76
2022-09-07T02:21:43.361Z,16.65
2022-09-07T02:24:23.994Z,16.66
2022-09-07T02:27:04.781Z,16.60
2022-09-07T02:29:32.776Z,16.53
2022-09-07T02:32:03.193Z,16.66
2022-09-07T02:34:32.348Z,16.61
2022-09-07T02:37:06.670Z,16.53
2022-09-07T02:39:40.688Z,16.53
2022-09-07T02:42:09.482Z,17.79
2022-09-07T02:44:42.921Z,17.97
2022-09-07T02:47:23.239Z,18.33
2022-09-07T02:50:17.437Z,18.25
2022-09-07T02:53:22.057Z,18.46
2022-09-07T02:56:04.871Z,18.52
2022-09-07T02:58:42.359Z,18.43
2022-09-07T03:01:26.175Z,18.29
2022-09-07T03:04:12.684Z,17.98
2022-09-07T03:06:49.144Z,17.86
2022-09-07T03:09:21.044Z,18.04
2022-09-07T03:11:49.213Z,17.99
2022-09-07T03:14:20.959Z,18.13
2022-09-07T03:16:51.463Z,18.44
2022-09-07T03:19:18.911Z,18.21
2022-09-07T03:21:46.425Z,18.53
2022-09-07T03:24:13.799Z,18.32
2022-09-07T03:26:45.582Z,18.15
2022-09-07T03:29:13.340Z,17.77
2022-09-07T03:31:41.177Z,17.89
2022-09-07T03:34:08.979Z,18.01
2022-09-07T03:36:36.470Z,18.07
2022-09-07T03:39:05.840Z,18.17
2022-09-07T03:41:34.034Z,18.35
2022-09-07T03:44:06.080Z,18.64
2022-09-07T03:46:34.129Z,18.55
2022-09-07T03:49:01.663Z,18.55
2022-09-07T03:51:29.377Z,18.72
2022-09-07T03:53:56.830Z,18.50
2022-09-07T03:56:27.042Z,18.30
2022-09-07T03:58:55.446Z,17.98
2022-09-07T04:01:41.700Z,17.92
2022-09-07T04:04:14.992Z,18.13
2022-09-07T04:06:47.755Z,17.65
2022-09-07T04:09:21.896Z,17.76
2022-09-07T04:11:53.345Z,17.82
2022-09-07T04:14:25.021Z,17.85
2022-09-07T04:16:53.135Z,18.10
2022-09-07T04:19:29.441Z,17.99
2022-09-07T04:21:57.504Z,17.45
2022-09-07T04:24:25.610Z,17.36
2022-09-07T04:26:54.557Z,17.65
2022-09-07T04:29:28.649Z,18.11
2022-09-07T04:31:59.374Z,17.77
2022-09-07T04:34:30.211Z,17.64
2022-09-07T04:36:57.599Z,17.56
2022-09-07T04:39:36.887Z,17.39
2022-09-07T04:42:04.472Z,17.67
2022-09-07T04:44:34.742Z,17.76
2022-09-07T04:47:05.472Z,18.15
2022-09-07T04:49:36.343Z,17.93
2022-09-07T04:52:10.767Z,17.93
2022-09-07T04:54:41.704Z,17.88
2022-09-07T04:57:11.231Z,17.71
2022-09-07T04:59:38.713Z,17.88
2022-09-07T05:02:06.806Z,17.92
2022-09-07T05:04:40.662Z,18.08
2022-09-07T05:07:11.351Z,18.13
2022-09-07T05:09:46.022Z,18.12
2022-09-07T05:12:17.128Z,18.19
2022-09-07T05:14:48.275Z,18.38
2022-09-07T05:17:19.541Z,18.20
2022-09-07T05:19:49.827Z,18.67
2022-09-07T05:22:20.094Z,18.50
2022-09-07T05:24:56.605Z,18.51
2022-09-07T05:27:30.743Z,18.71
2022-09-07T05:32:37.578Z,18.86
2022-09-07T05:35:08.853Z,18.88
2022-09-07T05:37:36.175Z,19.04
2022-09-07T05:40:08.187Z,19.12
2022-09-07T05:42:39.139Z,18.99
2022-09-07T05:45:07.419Z,19.20
2022-09-07T05:47:37.998Z,19.49
2022-09-07T05:50:09.950Z,19.93
2022-09-07T05:52:45.504Z,20.37
2022-09-07T05:55:29.547Z,20.68
2022-09-07T05:58:03.890Z,21.27
2022-09-07T06:00:35.836Z,21.45
2022-09-07T06:03:03.431Z,21.56
2022-09-07T06:05:34.425Z,21.58
2022-09-07T06:08:05.122Z,21.55
2022-09-07T06:10:45.675Z,21.34
2022-09-07T06:13:13.584Z,21.00
2022-09-07T06:15:44.579Z,20.70
2022-09-07T06:18:17.972Z,20.69
2022-09-07T06:20:49.301Z,20.97
2022-09-07T06:23:23.104Z,20.84
2022-09-07T06:25:50.956Z,21.20
2022-09-07T06:29:01.565Z,21.21
2022-09-07T06:34:27.669Z,20.86
2022-09-07T06:36:57.707Z,20.89
2022-09-07T06:39:31.498Z,20.83
2022-09-07T06:42:05.713Z,20.97
2022-09-07T06:44:36.975Z,20.89
2022-09-07T06:47:10.355Z,20.96
2022-09-07T06:49:40.258Z,20.99
2022-09-07T06:52:10.552Z,21.23
2022-09-07T06:57:31.968Z,21.27
2022-09-07T07:00:05.223Z,21.12
2022-09-07T07:02:46.554Z,21.01
2022-09-07T07:05:24.214Z,21.04
2022-09-07T07:07:57.704Z,21.17
2022-09-07T07:10:29.527Z,21.23
2022-09-07T07:12:59.746Z,21.32
2022-09-07T07:15:33.569Z,21.36
2022-09-07T07:18:20.270Z,21.39
2022-09-07T07:20:55.114Z,21.42
2022-09-07T07:23:24.893Z,21.36
2022-09-07T07:25:52.315Z,21.44
2022-09-07T07:31:19.246Z,21.68
2022-09-07T07:33:52.230Z,21.72
2022-09-07T07:37:04.931Z,21.81
2022-09-07T07:50:56.602Z,22.26
2022-09-07T07:53:47.471Z,22.36
2022-09-07T07:56:16.557Z,22.42
2022-09-07T07:58:48.103Z,22.45
2022-09-07T08:01:22.494Z,22.48
2022-09-07T08:03:52.930Z,22.53
2022-09-07T08:06:21.200Z,22.58
2022-09-07T08:08:51.997Z,22.62
2022-09-07T08:11:25.003Z,22.70
2022-09-07T08:13:52.854Z,22.75
2022-09-07T08:16:29.683Z,22.83
2022-09-07T08:19:03.330Z,22.84
2022-09-07T08:21:37.797Z,22.87
2022-09-07T08:24:05.373Z,22.99
2022-09-07T08:26:35.907Z,23.06
2022-09-07T08:29:03.488Z,23.11
2022-09-07T08:31:30.910Z,23.21
2022-09-07T08:34:02.471Z,23.28
2022-09-07T08:36:33.407Z,23.42
2022-09-07T08:39:05.681Z,23.52
2022-09-07T08:41:45.626Z,23.63
2022-09-07T08:44:24.366Z,23.77
2022-09-07T08:46:57.985Z,23.96
2022-09-07T08:49:47.449Z,24.03
2022-09-07T08:52:25.021Z,24.20
2022-09-07T08:55:03.915Z,24.23
2022-09-07T08:57:35.168Z,24.38
2022-09-07T09:00:11.539Z,24.49
2022-09-07T09:02:45.600Z,24.53
2022-09-07T09:05:21.965Z,24.55
2022-09-07T09:08:27.359Z,24.47
2022-09-07T09:11:06.497Z,24.60
2022-09-07T09:13:59.746Z,24.70
2022-09-07T09:16:55.287Z,24.79
2022-09-07T09:19:54.700Z,24.83
2022-09-07T09:22:28.812Z,24.71
2022-09-07T09:25:23.684Z,24.73
2022-09-07T09:27:53.907Z,24.76
2022-09-07T09:30:26.022Z,24.95
2022-09-07T09:33:29.069Z,24.77
2022-09-07T09:36:01.714Z,24.80
2022-09-07T09:38:35.998Z,24.61
2022-09-07T09:41:11.390Z,24.80
2022-09-07T09:43:52.866Z,24.83
2022-09-07T09:46:25.539Z,24.83
2022-09-07T09:49:16.414Z,24.58
2022-09-07T09:54:55.827Z,24.68
2022-09-07T09:59:04.811Z,24.95
2022-09-07T10:00:36.406Z,25.04
2022-09-07T10:06:16.928Z,25.15
2022-09-07T10:09:01.233Z,24.91
2022-09-07T10:14:42.147Z,25.20
2022-09-07T10:17:42.947Z,25.06
2022-09-07T10:20:13.741Z,25.07
2022-09-07T10:22:51.775Z,24.82
2022-09-07T10:25:42.067Z,24.91
2022-09-07T10:28:19.974Z,24.68
2022-09-07T10:31:12.453Z,24.75
2022-09-07T10:36:55.160Z,25.03
2022-09-07T10:39:50.947Z,25.18
2022-09-07T10:42:30.523Z,25.36
2022-09-07T10:45:24.351Z,25.16
2022-09-07T10:48:03.671Z,25.19
2022-09-07T10:50:43.530Z,25.26
2022-09-07T10:53:44.658Z,25.19
2022-09-07T10:56:35.503Z,25.20
2022-09-07T11:00:07.429Z,25.19
2022-09-07T11:02:24.856Z,25.30
2022-09-07T11:05:35.105Z,25.05
2022-09-07T11:08:27.168Z,25.08
2022-09-07T11:11:10.232Z,25.20
2022-09-07T11:14:08.982Z,25.16
2022-09-07T11:16:51.041Z,25.10
2022-09-07T11:19:44.107Z,25.02
2022-09-07T11:22:21.147Z,25.16
2022-09-07T11:25:33.044Z,25.04
2022-09-07T11:28:14.209Z,25.25
2022-09-07T11:30:47.982Z,25.10
2022-09-07T11:33:27.313Z,25.14
2022-09-07T11:36:11.833Z,25.27
2022-09-07T11:38:47.048Z,25.42
2022-09-07T11:41:17.843Z,25.56
2022-09-07T11:44:01.105Z,25.43
2022-09-07T11:46:43.501Z,25.05
2022-09-07T11:49:22.300Z,25.10
2022-09-07T11:51:55.773Z,25.03
2022-09-07T11:54:45.129Z,24.97
2022-09-07T11:57:15.727Z,24.92
2022-09-07T12:00:18.909Z,25.01
2022-09-07T12:03:04.940Z,24.93
2022-09-07T12:05:44.173Z,25.09
2022-09-07T12:08:25.762Z,25.10
2022-09-07T12:11:01.970Z,25.13
2022-09-07T12:13:37.692Z,25.08
2022-09-07T12:16:23.367Z,25.13
2022-09-07T12:19:19.594Z,25.20
2022-09-07T12:21:53.293Z,25.14
2022-09-07T12:24:34.754Z,25.36
2022-09-07T12:27:22.268Z,25.06
2022-09-07T12:30:07.965Z,25.05
2022-09-07T12:32:55.803Z,25.03
2022-09-07T12:35:26.308Z,25.07
2022-09-07T12:37:54.910Z,25.15
2022-09-07T12:40:28.215Z,25.16
2022-09-07T12:43:13.811Z,25.14
2022-09-07T12:45:41.296Z,25.11
2022-09-07T12:48:29.186Z,24.93
2022-09-07T12:51:59.346Z,24.96
2022-09-07T12:54:24.648Z,25.09
2022-09-07T12:59:51.652Z,25.32
2022-09-07T13:02:22.216Z,25.13
2022-09-07T13:05:30.657Z,24.99
2022-09-07T13:08:13.583Z,25.00
2022-09-07T13:10:43.342Z,24.96
2022-09-07T13:13:14.506Z,25.00
2022-09-07T13:15:49.009Z,25.03
2022-09-07T13:18:28.775Z,25.11
2022-09-07T13:21:08.144Z,25.17
2022-09-07T13:23:40.022Z,25.31
2022-09-07T13:26:15.134Z,25.24
2022-09-07T13:28:51.133Z,25.31
2022-09-07T13:31:46.566Z,25.27
2022-09-07T13:34:41.522Z,25.22
2022-09-07T13:37:19.121Z,25.17
2022-09-07T13:39:58.877Z,25.08
2022-09-07T13:42:32.510Z,25.09
2022-09-07T13:45:02.326Z,25.09
2022-09-07T13:47:43.502Z,25.08
2022-09-07T13:50:13.827Z,25.16
2022-09-07T13:53:09.001Z,25.11
2022-09-07T13:56:11.734Z,24.98
2022-09-07T13:58:46.368Z,24.99
2022-09-07T14:01:21.718Z,25.03
2022-09-07T14:03:53.738Z,24.96
2022-09-07T14:06:21.092Z,25.02
2022-09-07T14:09:01.089Z,25.00
2022-09-07T14:11:40.283Z,24.93
2022-09-07T14:14:30.636Z,24.90
2022-09-07T14:17:00.933Z,24.96
2022-09-07T14:19:46.359Z,25.05
2022-09-07T14:22:31.998Z,24.96
2022-09-07T14:25:01.855Z,25.01
2022-09-07T14:27:41.388Z,24.92
2022-09-07T14:30:30.737Z,24.92
2022-09-07T14:33:05.081Z,24.87
2022-09-07T14:35:34.533Z,24.87
2022-09-07T14:41:25.873Z,24.80
2022-09-07T14:44:00.389Z,24.77
2022-09-07T14:46:33.371Z,24.69
2022-09-07T14:49:18.640Z,24.81
2022-09-07T14:51:48.479Z,24.76
2022-09-07T14:54:36.332Z,24.89
2022-09-07T14:57:29.840Z,24.80
2022-09-07T15:00:17.633Z,24.72
2022-09-07T15:02:47.753Z,24.80
2022-09-07T15:05:25.483Z,24.71
2022-09-07T15:07:57.302Z,24.65
2022-09-07T15:10:31.706Z,24.61
2022-09-07T15:13:03.297Z,24.58
2022-09-07T15:15:37.478Z,24.51
2022-09-07T15:18:46.361Z,24.61
2022-09-07T15:21:14.692Z,24.57
2022-09-07T15:23:44.973Z,24.53
2022-09-07T15:29:14.537Z,24.51
2022-09-07T15:31:59.357Z,24.53
2022-09-07T15:34:35.186Z,24.44
2022-09-07T15:40:02.085Z,24.36
2022-09-07T15:45:23.595Z,24.41
2022-09-07T15:47:53.298Z,24.46
2022-09-07T15:50:23.109Z,24.40
2022-09-07T15:52:51.165Z,24.35
2022-09-07T15:55:18.846Z,24.28
2022-09-07T15:57:54.581Z,24.28
2022-09-07T16:00:31.955Z,24.23
2022-09-07T16:03:06.817Z,24.07
2022-09-07T16:05:39.766Z,23.97
2022-09-07T16:08:27.545Z,23.96
2022-09-07T16:11:05.246Z,24.08
2022-09-07T16:13:37.229Z,24.04
2022-09-07T16:16:11.081Z,24.00
2022-09-07T16:18:41.877Z,23.94
2022-09-07T16:21:13.319Z,23.85
2022-09-07T16:23:50.390Z,23.80
2022-09-07T16:26:20.788Z,23.72
2022-09-07T16:28:54.461Z,23.80
2022-09-07T16:31:26.506Z,23.67
2022-09-07T16:34:02.042Z,23.64
2022-09-07T16:36:32.794Z,23.52
2022-09-07T16:39:03.909Z,23.57
2022-09-07T16:41:32.028Z,23.83
2022-09-07T16:44:02.402Z,23.55
2022-09-07T16:46:30.438Z,23.47
2022-09-07T16:49:02.018Z,23.32
2022-09-07T16:51:36.002Z,23.25
2022-09-07T16:54:13.309Z,23.16
2022-09-07T16:56:48.253Z,23.16
2022-09-07T16:59:30.601Z,23.10
2022-09-07T17:02:05.286Z,22.96
2022-09-07T17:04:34.525Z,22.87
2022-09-07T17:07:05.011Z,22.81
2022-09-07T17:09:35.451Z,22.71
2022-09-07T17:12:04.556Z,22.60
2022-09-07T17:14:35.619Z,22.57
2022-09-07T17:17:06.004Z,22.50
2022-09-07T17:19:35.627Z,22.41
2022-09-07T17:22:03.937Z,22.40
2022-09-07T17:24:32.209Z,22.51
2022-09-07T17:27:01.334Z,22.49
2022-09-07T17:29:29.605Z,22.52
2022-09-07T17:35:00.827Z,22.41
2022-09-07T17:37:36.334Z,22.30
2022-09-07T17:40:10.524Z,22.33
2022-09-07T17:45:47.766Z,22.34
2022-09-07T17:48:15.055Z,22.11
2022-09-07T17:50:43.003Z,22.17
2022-09-07T17:53:19.228Z,22.29
2022-09-07T17:55:49.669Z,22.20
2022-09-07T17:58:17.002Z,22.28
2022-09-07T18:00:44.985Z,22.02
2022-09-07T18:03:13.763Z,22.20
2022-09-07T18:05:41.285Z,22.22
2022-09-07T18:08:12.286Z,22.21
2022-09-07T18:13:36.088Z,22.06
2022-09-07T18:16:29.216Z,22.20
2022-09-07T18:19:00.086Z,22.05
2022-09-07T18:21:44.318Z,21.96
2022-09-07T18:24:18.409Z,21.74
2022-09-07T18:26:52.423Z,21.81
2022-09-07T18:29:29.489Z,21.85
2022-09-07T18:32:08.450Z,21.84
2022-09-07T18:34:41.695Z,21.54
2022-09-07T18:37:19.233Z,21.44
2022-09-07T18:39:54.721Z,21.60
2022-09-07T18:42:22.385Z,21.74
2022-09-07T18:47:36.926Z,21.51
2022-09-07T18:50:11.149Z,21.51
2022-09-07T18:52:59.109Z,21.56
2022-09-07T18:55:32.224Z,21.60
2022-09-07T18:58:00.014Z,21.70
2022-09-07T19:00:30.511Z,21.77
2022-09-07T19:03:03.832Z,21.66
2022-09-07T19:05:50.688Z,21.56
2022-09-07T19:08:24.352Z,21.65
2022-09-07T19:10:52.385Z,21.65
2022-09-07T19:13:22.364Z,21.39
2022-09-07T19:15:53.330Z,21.43
2022-09-07T19:18:27.226Z,21.39
2022-09-07T19:21:06.084Z,21.44
2022-09-07T19:23:36.802Z,21.39
2022-09-07T19:26:09.554Z,21.41
2022-09-07T19:28:40.045Z,21.26
2022-09-07T19:31:07.913Z,21.29
2022-09-07T19:33:41.055Z,21.36
2022-09-07T19:36:19.113Z,21.30
2022-09-07T19:38:46.467Z,21.30
2022-09-07T19:41:17.201Z,21.42
2022-09-07T19:43:59.347Z,21.48
2022-09-07T19:46:36.612Z,21.34
2022-09-07T19:49:07.329Z,21.37
2022-09-07T19:51:36.874Z,21.23
2022-09-07T19:54:10.730Z,21.03
2022-09-07T19:56:40.256Z,20.64
2022-09-07T19:59:07.711Z,20.44
2022-09-07T20:01:41.654Z,20.36
2022-09-07T20:04:19.010Z,20.30
2022-09-07T20:06:48.256Z,20.24
2022-09-07T20:09:16.740Z,20.13
2022-09-07T20:11:46.700Z,20.11
2022-09-07T20:14:21.120Z,20.04
2022-09-07T20:16:48.485Z,19.95
2022-09-07T20:19:23.213Z,19.93
2022-09-07T20:21:50.797Z,19.85
2022-09-07T20:24:20.243Z,19.83
2022-09-07T20:26:57.694Z,19.84
2022-09-07T20:29:30.205Z,19.85
2022-09-07T20:32:01.992Z,19.57
2022-09-07T20:34:31.632Z,19.63
2022-09-07T20:36:58.962Z,19.55
2022-09-07T20:39:26.315Z,19.46
2022-09-07T20:41:54.325Z,19.52
2022-09-07T20:44:24.734Z,19.44
2022-09-07T20:46:52.095Z,19.34
2022-09-07T20:49:19.409Z,19.21
2022-09-07T20:51:46.784Z,19.35
2022-09-07T20:54:14.278Z,19.28
2022-09-07T20:56:41.907Z,19.30
2022-09-07T20:59:09.409Z,19.29
2022-09-07T21:01:36.891Z,19.31
2022-09-07T21:04:04.487Z,19.26
2022-09-07T21:06:32.661Z,19.23
2022-09-07T21:09:00.522Z,19.26
2022-09-07T21:11:33.988Z,19.20
2022-09-07T21:14:02.383Z,19.17
2022-09-07T21:16:29.878Z,19.18
2022-09-07T21:18:59.264Z,19.04
2022-09-07T21:21:36.631Z,18.96
2022-09-07T21:24:07.141Z,18.92
2022-09-07T21:26:34.471Z,18.84
2022-09-07T21:29:03.706Z,18.79
2022-09-07T21:31:32.741Z,18.69
2022-09-07T21:34:01.642Z,18.60
2022-09-07T21:36:30.226Z,18.62
2022-09-07T21:38:57.581Z,18.57
2022-09-07T21:41:25.636Z,18.50
2022-09-07T21:44:01.519Z,18.52
2022-09-07T21:46:31.451Z,18.48
2022-09-07T21:48:59.930Z,18.58
2022-09-07T21:51:27.766Z,18.53
2022-09-07T21:53:57.242Z,18.54
2022-09-07T21:56:25.704Z,18.47
2022-09-07T21:58:58.014Z,18.51
2022-09-07T22:01:27.400Z,18.44
2022-09-07T22:03:57.122Z,18.39
2022-09-07T22:06:25.432Z,18.38
2022-09-07T22:08:52.735Z,18.48
2022-09-07T22:11:22.202Z,18.48
2022-09-07T22:13:53.082Z,18.44
2022-09-07T22:16:20.433Z,18.45
2022-09-07T22:18:48.214Z,18.40
2022-09-07T22:21:18.431Z,18.34
2022-09-07T22:23:48.813Z,18.35
2022-09-07T22:26:21.153Z,18.40
2022-09-07T22:28:48.930Z,18.19
2022-09-07T22:31:28.861Z,18.23
2022-09-07T22:33:58.276Z,18.26
2022-09-07T22:36:28.887Z,18.21
2022-09-07T22:38:59.059Z,18.17
2022-09-07T22:41:32.386Z,18.14
2022-09-07T22:44:00.024Z,18.17
2022-09-07T22:46:30.256Z,18.12
2022-09-07T22:48:58.899Z,18.17
2022-09-07T22:51:27.098Z,18.16
2022-09-07T22:53:55.601Z,18.18
2022-09-07T22:56:25.617Z,18.11
2022-09-07T22:58:56.793Z,18.18
2022-09-07T23:01:24.648Z,18.14
2022-09-07T23:03:52.198Z,18.24
2022-09-07T23:06:23.860Z,18.22
2022-09-07T23:08:53.712Z,18.27
2022-09-07T23:11:21.367Z,18.15
2022-09-07T23:13:59.266Z,18.20
2022-09-07T23:16:27.741Z,18.04
2022-09-07T23:18:56.072Z,17.95
2022-09-07T23:21:23.885Z,18.02
2022-09-07T23:23:56.768Z,18.02
2022-09-07T23:26:25.903Z,18.04
2022-09-07T23:28:58.947Z,18.01
2022-09-07T23:31:27.279Z,18.11
2022-09-07T23:33:56.259Z,18.05
2022-09-07T23:36:24.304Z,18.15
2022-09-07T23:38:54.950Z,18.05
2022-09-07T23:41:23.987Z,18.08
2022-09-07T23:43:54.751Z,18.03
2022-09-07T23:46:22.724Z,18.03
2022-09-07T23:48:51.094Z,17.97
2022-09-07T23:51:23.579Z,17.96
2022-09-07T23:53:52.789Z,17.98
2022-09-07T23:56:20.837Z,17.87
2022-09-07T23:58:48.714Z,17.93
